Time;durP1;ratioP1;P1;durP2;ratioP2;P2;SDS_P1;SDS_P2;PMS_P1;PMS_P2;Temp;Humidity;BMP_temperature;BMP_pressure;BME280_temperature;BME280_humidity;BME280_pressure;Samples;Min_cycle;Max_cycle;Signal;HPM_P1;HPM_P2
2023/11/06 00:00:08;;;;;;;24.25;12.50;;;;;;;;;;6140726;23;20471;-60
2023/11/06 00:03:00;;;;;;;22.00;12.50;;;;;;;;;;6143067;23;20029;-60
2023/11/06 00:05:47;;;;;;;22.25;13.63;;;;;;;;;;6141424;23;20120;-60
2023/11/06 00:08:41;;;;;;;18.95;11.23;;;;;;;;;;6142269;23;20035;-60
2023/11/06 00:11:28;;;;;;;18.02;10.30;;;;;;;;;;6143515;23;20192;-65
2023/11/06 00:14:22;;;;;;;14.88;9.38;;;;;;;;;;6142737;23;20017;-51
2023/11/06 00:17:09;;;;;;;20.17;10.15;;;;;;;;;;6143019;23;20096;-55
2023/11/06 00:20:10;;;;;;;11.40;8.98;;;;;;;;;;6141249;23;20026;-54
2023/11/06 00:22:57;;;;;;;13.07;8.30;;;;;;;;;;6141382;23;20459;-54
2023/11/06 00:25:31;;;;;;;13.35;8.63;;;;;;;;;;6141971;23;20032;-52
2023/11/06 00:28:18;;;;;;;20.20;11.07;;;;;;;;;;6141392;23;20236;-52
2023/11/06 00:31:12;;;;;;;20.30;11.95;;;;;;;;;;6141294;23;20028;-60
2023/11/06 00:33:59;;;;;;;22.00;12.95;;;;;;;;;;6140778;23;20424;-62
2023/11/06 00:36:54;;;;;;;16.20;10.98;;;;;;;;;;6143225;23;20076;-63
2023/11/06 00:39:42;;;;;;;17.63;10.80;;;;;;;;;;6141927;23;20355;-62
2023/11/06 00:42:36;;;;;;;12.05;8.43;;;;;;;;;;6142301;23;20744;-62
2023/11/06 00:45:24;;;;;;;17.70;11.02;;;;;;;;;;6142088;23;20025;-63
2023/11/06 00:48:18;;;;;;;19.20;11.88;;;;;;;;;;6142745;23;20088;-65
2023/11/06 00:51:05;;;;;;;20.58;12.50;;;;;;;;;;6140741;23;20040;-66
2023/11/06 00:53:59;;;;;;;20.67;12.75;;;;;;;;;;6141572;23;20092;-66
2023/11/06 00:56:46;;;;;;;13.85;9.85;;;;;;;;;;6141005;23;20777;-65
2023/11/06 00:59:40;;;;;;;13.80;8.80;;;;;;;;;;6140930;23;20029;-66
2023/11/06 01:02:28;;;;;;;16.73;11.18;;;;;;;;;;6142653;23;20031;-65
2023/11/06 01:05:21;;;;;;;21.83;12.35;;;;;;;;;;6141729;23;20033;-66
2023/11/06 01:08:09;;;;;;;21.15;12.05;;;;;;;;;;6141826;23;20030;-61
2023/11/06 01:10:43;;;;;;;19.27;12.57;;;;;;;;;;6142285;23;20022;-53
2023/11/06 01:13:13;;;;;;;;;;;;;;;;;;6142410;23;20032;-54
2023/11/06 01:15:42;;;;;;;18.45;10.65;;;;;;;;;;6142887;23;19920;-55
2023/11/06 01:18:22;;;;;;;21.73;11.40;;;;;;;;;;6143238;23;20029;-55
2023/11/06 01:20:56;;;;;;;20.65;10.82;;;;;;;;;;6140377;23;20052;-55
2023/11/06 01:23:30;;;;;;;16.98;9.98;;;;;;;;;;6142882;23;20092;-56
2023/11/06 01:25:57;;;;;;;13.70;8.77;;;;;;;;;;6141285;23;20033;-55
2023/11/06 01:28:51;;;;;;;15.18;9.52;;;;;;;;;;6141856;23;20017;-60
2023/11/06 01:31:39;;;;;;;14.75;8.75;;;;;;;;;;6142587;23;20022;-60
2023/11/06 01:34:33;;;;;;;19.13;11.38;;;;;;;;;;6140798;23;20037;-60
2023/11/06 01:37:20;;;;;;;18.95;11.20;;;;;;;;;;6141811;23;20041;-60
2023/11/06 01:40:15;;;;;;;16.48;11.02;;;;;;;;;;6141239;23;20026;-59
2023/11/06 01:43:08;;;;;;;21.85;11.02;;;;;;;;;;6141722;23;20025;-66
2023/11/06 01:46:02;;;;;;;19.77;11.88;;;;;;;;;;6141164;23;20028;-61
2023/11/06 01:48:49;;;;;;;18.98;10.90;;;;;;;;;;6137546;23;20794;-54
2023/11/06 01:51:43;;;;;;;22.08;10.93;;;;;;;;;;6139254;23;20025;-50
2023/11/06 01:54:31;;;;;;;13.27;10.18;;;;;;;;;;6137926;23;20463;-50
2023/11/06 01:57:25;;;;;;;17.45;10.77;;;;;;;;;;6141654;23;20036;-50
2023/11/06 02:00:13;;;;;;;21.25;12.23;;;;;;;;;;6139765;23;20025;-53
2023/11/06 02:03:08;;;;;;;23.63;13.23;;;;;;;;;;6142098;23;20100;-63
2023/11/06 02:05:55;;;;;;;26.10;13.88;;;;;;;;;;6140663;23;20494;-61
2023/11/06 02:08:49;;;;;;;27.70;15.02;;;;;;;;;;6140401;23;20475;-61
2023/11/06 02:11:36;;;;;;;27.77;15.27;;;;;;;;;;6141147;23;20714;-61
2023/11/06 02:14:30;;;;;;;26.70;15.38;;;;;;;;;;6140433;23;20021;-61
2023/11/06 02:17:18;;;;;;;22.95;15.25;;;;;;;;;;6141695;23;20028;-61
2023/11/06 02:20:19;;;;;;;24.42;14.75;;;;;;;;;;6141475;23;20036;-64
2023/11/06 02:23:12;;;;;;;21.42;12.40;;;;;;;;;;6142785;23;20021;-53
2023/11/06 02:26:06;;;;;;;24.17;11.15;;;;;;;;;;6141621;23;20025;-48
2023/11/06 02:28:53;;;;;;;20.67;11.60;;;;;;;;;;6141388;23;20100;-47
2023/11/06 02:31:47;;;;;;;26.27;12.50;;;;;;;;;;6140380;23;20030;-47
2023/11/06 02:34:38;;;;;;;20.77;12.25;;;;;;;;;;6138964;23;20021;-51
2023/11/06 02:37:32;;;;;;;19.45;12.65;;;;;;;;;;6141643;23;20070;-49
2023/11/06 02:40:19;;;;;;;23.88;14.75;;;;;;;;;;6139658;23;20029;-64
2023/11/06 02:43:13;;;;;;;25.48;15.45;;;;;;;;;;6140593;23;20734;-59
2023/11/06 02:46:00;;;;;;;24.95;14.48;;;;;;;;;;6140630;23;20077;-60
2023/11/06 02:48:54;;;;;;;26.95;14.68;;;;;;;;;;6141036;23;20447;-59
2023/11/06 02:51:41;;;;;;;26.33;14.68;;;;;;;;;;6141265;23;20029;-60
2023/11/06 02:54:35;;;;;;;25.73;14.93;;;;;;;;;;6140951;23;20099;-60
2023/11/06 02:57:22;;;;;;;24.92;14.63;;;;;;;;;;6140549;23;20033;-60
2023/11/06 03:00:16;;;;;;;21.83;12.35;;;;;;;;;;6141293;23;20025;-62
2023/11/06 03:03:03;;;;;;;21.60;13.57;;;;;;;;;;6141445;23;20463;-62
2023/11/06 03:05:57;;;;;;;19.80;12.13;;;;;;;;;;6139759;23;20124;-62
2023/11/06 03:08:44;;;;;;;21.75;13.13;;;;;;;;;;6139631;23;20724;-62
2023/11/06 03:11:38;;;;;;;21.98;13.70;;;;;;;;;;6140206;23;20052;-61
2023/11/06 03:14:25;;;;;;;28.55;14.60;;;;;;;;;;6142486;23;20170;-62
2023/11/06 03:17:19;;;;;;;36.47;16.33;;;;;;;;;;6140561;23;20463;-60
2023/11/06 03:20:14;;;;;;;31.92;14.90;;;;;;;;;;6137892;23;20100;-60
2023/11/06 03:23:08;;;;;;;26.38;15.18;;;;;;;;;;6141744;23;20025;-60
2023/11/06 03:25:55;;;;;;;24.33;13.45;;;;;;;;;;6139718;23;20025;-60
2023/11/06 03:28:49;;;;;;;14.82;10.68;;;;;;;;;;6142082;23;20367;-60
2023/11/06 03:31:36;;;;;;;22.40;14.23;;;;;;;;;;6142980;23;20029;-60
2023/11/06 03:34:30;;;;;;;24.90;14.05;;;;;;;;;;6140886;23;20025;-61
2023/11/06 03:37:24;;;;;;;22.48;14.10;;;;;;;;;;6142383;23;20503;-51
2023/11/06 03:40:11;;;;;;;34.67;17.02;;;;;;;;;;6143000;23;20455;-52
2023/11/06 03:43:05;;;;;;;31.58;16.90;;;;;;;;;;6144031;23;20087;-54
2023/11/06 03:45:52;;;;;;;31.30;17.08;;;;;;;;;;6143009;23;20092;-50
2023/11/06 03:48:46;;;;;;;30.70;16.10;;;;;;;;;;6142482;23;20022;-52
2023/11/06 03:51:33;;;;;;;24.88;14.57;;;;;;;;;;6142732;23;20021;-60
2023/11/06 03:54:27;;;;;;;31.02;16.50;;;;;;;;;;6143748;23;20604;-61
2023/11/06 03:57:14;;;;;;;39.45;18.33;;;;;;;;;;6142361;23;20032;-60
2023/11/06 04:00:10;;;;;;;40.40;17.65;;;;;;;;;;6142497;23;20675;-60
2023/11/06 04:02:55;;;;;;;42.80;18.83;;;;;;;;;;6141866;23;20026;-60
2023/11/06 04:05:49;;;;;;;28.77;15.23;;;;;;;;;;6143256;23;20027;-59
2023/11/06 04:08:43;;;;;;;23.67;13.88;;;;;;;;;;6142626;23;20027;-60
2023/11/06 04:11:30;;;;;;;52.30;13.73;;;;;;;;;;6142041;23;20467;-59
2023/11/06 04:14:24;;;;;;;27.15;15.18;;;;;;;;;;6143623;23;20029;-60
2023/11/06 04:17:11;;;;;;;34.00;15.57;;;;;;;;;;6141540;23;20026;-60
2023/11/06 04:20:18;;;;;;;41.80;16.40;;;;;;;;;;6142703;23;20022;-60
2023/11/06 04:23:05;;;;;;;73.07;18.15;;;;;;;;;;6143162;23;20092;-60
2023/11/06 04:25:59;;;;;;;42.72;19.60;;;;;;;;;;6141184;23;20076;-60
2023/11/06 04:28:54;;;;;;;39.20;19.90;;;;;;;;;;6140336;23;20030;-61
2023/11/06 04:31:47;;;;;;;34.03;18.85;;;;;;;;;;6139920;23;20384;-62
2023/11/06 04:34:34;;;;;;;28.70;13.77;;;;;;;;;;6140025;23;20021;-62
2023/11/06 04:37:28;;;;;;;27.25;16.92;;;;;;;;;;6142407;23;20447;-63
2023/11/06 04:40:15;;;;;;;31.17;16.10;;;;;;;;;;6141385;23;20021;-63
2023/11/06 04:43:09;;;;;;;32.60;17.23;;;;;;;;;;6143305;23;20026;-64
2023/11/06 04:45:56;;;;;;;27.13;16.35;;;;;;;;;;6143615;23;20029;-62
2023/11/06 04:48:50;;;;;;;27.30;17.40;;;;;;;;;;6142183;23;20048;-63
2023/11/06 04:51:37;;;;;;;25.60;17.38;;;;;;;;;;6142232;23;20084;-65
2023/11/06 04:54:31;;;;;;;35.00;18.23;;;;;;;;;;6140711;23;20853;-65
2023/11/06 04:57:13;;;;;;;29.30;16.90;;;;;;;;;;6142333;23;20029;-64
2023/11/06 05:00:09;;;;;;;27.95;16.65;;;;;;;;;;6142302;23;20104;-65
2023/11/06 05:02:54;;;;;;;27.77;16.55;;;;;;;;;;6142926;23;20049;-66
2023/11/06 05:05:48;;;;;;;30.98;17.48;;;;;;;;;;6142787;23;20085;-66
2023/11/06 05:08:38;;;;;;;31.83;17.58;;;;;;;;;;6142112;23;20021;-65
2023/11/06 05:11:32;;;;;;;28.05;18.13;;;;;;;;;;6141720;23;20033;-65
2023/11/06 05:14:19;;;;;;;33.70;17.90;;;;;;;;;;6142464;23;20404;-65
2023/11/06 05:17:13;;;;;;;27.65;16.52;;;;;;;;;;6141496;23;20084;-65
2023/11/06 05:20:09;;;;;;;28.27;16.67;;;;;;;;;;6140546;23;20468;-65
2023/11/06 05:23:01;;;;;;;22.00;13.80;;;;;;;;;;6140482;23;20327;-65
2023/11/06 05:25:48;;;;;;;23.67;15.93;;;;;;;;;;6139930;23;20021;-60
2023/11/06 05:28:43;;;;;;;29.85;16.85;;;;;;;;;;6141564;23;20024;-62
2023/11/06 05:31:29;;;;;;;22.40;14.80;;;;;;;;;;6140140;23;20348;-63
2023/11/06 05:34:23;;;;;;;24.67;15.30;;;;;;;;;;6141666;23;20550;-63
2023/11/06 05:37:10;;;;;;;25.75;15.82;;;;;;;;;;6140280;23;20026;-63
2023/11/06 05:40:04;;;;;;;31.45;15.85;;;;;;;;;;6142386;23;20025;-63
2023/11/06 05:42:52;;;;;;;24.80;16.25;;;;;;;;;;6142296;23;20105;-61
2023/11/06 05:45:46;;;;;;;25.08;16.23;;;;;;;;;;6137297;23;20030;-60
2023/11/06 05:48:34;;;;;;;28.17;15.90;;;;;;;;;;6139215;23;20040;-60
2023/11/06 05:51:29;;;;;;;27.95;15.98;;;;;;;;;;6138671;23;20196;-60
2023/11/06 05:54:17;;;;;;;26.23;16.33;;;;;;;;;;6138217;23;20505;-60
2023/11/06 05:57:10;;;;;;;25.10;15.07;;;;;;;;;;6140145;23;20021;-60
2023/11/06 05:59:57;;;;;;;28.17;16.27;;;;;;;;;;6138246;23;20017;-60
2023/11/06 06:02:51;;;;;;;32.08;17.27;;;;;;;;;;6113343;23;20459;-62
2023/11/06 06:05:18;;;;;;;;;;;;;;;;;;6137549;23;20061;-62
2023/11/06 06:07:46;;;;;;;25.63;15.63;;;;;;;;;;6136998;23;19917;-63
2023/11/06 06:10:20;;;;;;;30.98;16.25;;;;;;;;;;6140942;23;20036;-63
2023/11/06 06:12:47;;;;;;;27.92;17.08;;;;;;;;;;6141288;23;20033;-63
2023/11/06 06:15:21;;;;;;;35.03;19.23;;;;;;;;;;6141017;23;20608;-63
2023/11/06 06:17:48;;;;;;;30.13;17.65;;;;;;;;;;6141404;23;20033;-62
2023/11/06 06:20:29;;;;;;;30.90;16.73;;;;;;;;;;6141239;23;20029;-66
2023/11/06 06:23:16;;;;;;;52.92;21.30;;;;;;;;;;6142519;23;20534;-61
2023/11/06 06:26:10;;;;;;;42.15;20.15;;;;;;;;;;6141701;23;20912;-61
2023/11/06 06:29:04;;;;;;;55.60;22.65;;;;;;;;;;6140022;23;20018;-61
2023/11/06 06:31:53;;;;;;;44.08;21.58;;;;;;;;;;6141020;23;20846;-61
2023/11/06 06:34:46;;;;;;;40.05;19.95;;;;;;;;;;6141716;23;20025;-62
2023/11/06 06:37:33;;;;;;;35.47;19.02;;;;;;;;;;6142837;23;20025;-65
2023/11/06 06:40:27;;;;;;;29.95;17.42;;;;;;;;;;6141016;23;20028;-55
2023/11/06 06:43:14;;;;;;;40.55;19.45;;;;;;;;;;6142823;23;20025;-53
2023/11/06 06:46:08;;;;;;;29.17;16.15;;;;;;;;;;6141229;23;20022;-55
2023/11/06 06:48:55;;;;;;;25.42;15.98;;;;;;;;;;6141664;23;20029;-51
2023/11/06 06:51:49;;;;;;;28.08;15.57;;;;;;;;;;6141260;23;20052;-52
2023/11/06 06:54:37;;;;;;;31.42;16.63;;;;;;;;;;6140992;23;20025;-54
2023/11/06 06:57:31;;;;;;;27.85;14.40;;;;;;;;;;6142180;23;20026;-60
2023/11/06 07:00:25;;;;;;;22.67;14.05;;;;;;;;;;6140333;23;20594;-60
2023/11/06 07:03:12;;;;;;;26.90;16.30;;;;;;;;;;6143334;23;20092;-60
2023/11/06 07:06:11;;;;;;;27.52;16.05;;;;;;;;;;6144138;23;20560;-61
2023/11/06 07:08:57;;;;;;;26.38;16.00;;;;;;;;;;6143314;23;20054;-61
2023/11/06 07:11:50;;;;;;;25.77;16.30;;;;;;;;;;6143603;23;20093;-61
2023/11/06 07:14:37;;;;;;;31.55;17.17;;;;;;;;;;6141879;23;20024;-53
2023/11/06 07:17:31;;;;;;;31.15;17.30;;;;;;;;;;6142279;23;20029;-50
2023/11/06 07:20:24;;;;;;;29.35;17.58;;;;;;;;;;6142907;23;20028;-55
2023/11/06 07:23:18;;;;;;;27.88;16.30;;;;;;;;;;6142725;23;20025;-52
2023/11/06 07:26:06;;;;;;;28.95;15.98;;;;;;;;;;6143158;23;20607;-56
2023/11/06 07:28:59;;;;;;;26.48;16.10;;;;;;;;;;6142217;23;20485;-56
2023/11/06 07:31:46;;;;;;;29.95;17.08;;;;;;;;;;6141248;23;20325;-53
2023/11/06 07:34:40;;;;;;;29.73;16.85;;;;;;;;;;6143324;23;20021;-60
2023/11/06 07:37:29;;;;;;;26.23;16.38;;;;;;;;;;6142359;23;20021;-62
2023/11/06 07:40:21;;;;;;;23.65;13.45;;;;;;;;;;6143270;23;20569;-61
2023/11/06 07:43:08;;;;;;;25.65;16.58;;;;;;;;;;6144135;23;20029;-61
2023/11/06 07:46:02;;;;;;;28.17;16.67;;;;;;;;;;6142592;23;20084;-61
2023/11/06 07:48:49;;;;;;;27.98;15.20;;;;;;;;;;6143272;23;20033;-61
2023/11/06 07:51:43;;;;;;;32.28;16.20;;;;;;;;;;6142386;23;20463;-60
2023/11/06 07:54:30;;;;;;;28.13;15.85;;;;;;;;;;6142275;23;20017;-55
2023/11/06 07:57:24;;;;;;;32.08;14.27;;;;;;;;;;6142517;23;20025;-52
2023/11/06 08:00:13;;;;;;;30.75;15.70;;;;;;;;;;6142701;23;20029;-50
2023/11/06 08:03:16;;;;;;;24.48;14.27;;;;;;;;;;6143131;23;20057;-54
2023/11/06 08:06:05;;;;;;;27.05;14.60;;;;;;;;;;6143759;23;20368;-52
2023/11/06 08:08:57;;;;;;;30.65;14.77;;;;;;;;;;6143114;23;20126;-61
2023/11/06 08:11:44;;;;;;;23.60;14.05;;;;;;;;;;6142001;23;20094;-62
2023/11/06 08:14:38;;;;;;;26.90;13.52;;;;;;;;;;6141138;23;20068;-61
2023/11/06 08:17:25;;;;;;;27.55;14.57;;;;;;;;;;6143633;23;20112;-61
2023/11/06 08:20:26;;;;;;;25.55;13.18;;;;;;;;;;6141417;23;20104;-61
2023/11/06 08:23:13;;;;;;;25.48;13.00;;;;;;;;;;6142660;23;20059;-61
2023/11/06 08:26:08;;;;;;;25.27;12.73;;;;;;;;;;6141592;23;20018;-61
2023/11/06 08:28:55;;;;;;;20.70;12.05;;;;;;;;;;6142513;23;20031;-54
2023/11/06 08:31:49;;;;;;;19.77;11.70;;;;;;;;;;6141319;23;20026;-62
2023/11/06 08:34:39;;;;;;;24.20;12.80;;;;;;;;;;6143512;23;20017;-63
2023/11/06 08:37:33;;;;;;;19.35;10.75;;;;;;;;;;6141901;23;20497;-63
2023/11/06 08:40:20;;;;;;;20.55;12.05;;;;;;;;;;6142332;23;20048;-63
2023/11/06 08:43:14;;;;;;;18.10;11.30;;;;;;;;;;6142307;23;20025;-63
2023/11/06 08:46:08;;;;;;;15.27;10.20;;;;;;;;;;6142179;23;20022;-55
2023/11/06 08:48:56;;;;;;;16.55;10.07;;;;;;;;;;6142773;23;20029;-62
2023/11/06 08:51:53;;;;;;;18.67;10.98;;;;;;;;;;6141208;23;20036;-61
2023/11/06 08:54:45;;;;;;;14.83;9.93;;;;;;;;;;6141700;23;20017;-61
2023/11/06 08:57:38;;;;;;;16.55;10.20;;;;;;;;;;6142534;23;21043;-61
2023/11/06 09:00:29;;;;;;;19.50;11.00;;;;;;;;;;6141377;23;20072;-61
2023/11/06 09:03:22;;;;;;;18.35;10.80;;;;;;;;;;6142823;23;20420;-61
2023/11/06 09:06:23;;;;;;;18.70;10.15;;;;;;;;;;6141758;23;20482;-61
2023/11/06 09:09:11;;;;;;;18.23;10.27;;;;;;;;;;6141697;23;20029;-62
2023/11/06 09:12:05;;;;;;;18.15;10.25;;;;;;;;;;6141232;23;20458;-61
2023/11/06 09:14:52;;;;;;;17.30;10.55;;;;;;;;;;6141908;23;20661;-60
2023/11/06 09:17:46;;;;;;;17.27;10.68;;;;;;;;;;6140902;23;20030;-61
2023/11/06 09:20:48;;;;;;;15.50;10.27;;;;;;;;;;6141738;23;20021;-61
2023/11/06 09:23:41;;;;;;;18.67;10.90;;;;;;;;;;6141855;23;20025;-60
2023/11/06 09:26:35;;;;;;;19.30;11.48;;;;;;;;;;6140695;23;20542;-61
2023/11/06 09:29:29;;;;;;;17.17;10.73;;;;;;;;;;6140242;23;20025;-60
2023/11/06 09:32:16;;;;;;;14.07;9.85;;;;;;;;;;6141459;23;20454;-60
2023/11/06 09:35:11;;;;;;;21.67;11.05;;;;;;;;;;6141489;23;20025;-61
2023/11/06 09:37:58;;;;;;;18.65;10.50;;;;;;;;;;6142797;23;20029;-60
2023/11/06 09:40:52;;;;;;;16.23;9.70;;;;;;;;;;6140129;23;20017;-62
2023/11/06 09:43:42;;;;;;;13.85;9.32;;;;;;;;;;6139703;23;20033;-51
2023/11/06 09:46:36;;;;;;;15.77;9.27;;;;;;;;;;6141793;23;20039;-61
2023/11/06 09:49:26;;;;;;;15.85;9.20;;;;;;;;;;6141879;23;20022;-61
2023/11/06 09:52:19;;;;;;;15.18;9.00;;;;;;;;;;6141151;23;20632;-61
2023/11/06 09:55:07;;;;;;;15.18;8.48;;;;;;;;;;6141915;23;20032;-61
2023/11/06 09:58:01;;;;;;;13.23;8.77;;;;;;;;;;6140825;23;20029;-61
2023/11/06 10:00:50;;;;;;;12.55;8.68;;;;;;;;;;6142436;23;20026;-60
2023/11/06 10:03:42;;;;;;;12.20;8.07;;;;;;;;;;6140085;23;20034;-61
2023/11/06 10:06:30;;;;;;;12.18;6.78;;;;;;;;;;6141565;23;20028;-61
2023/11/06 10:09:31;;;;;;;13.68;7.20;;;;;;;;;;6141324;23;20261;-61
2023/11/06 10:12:18;;;;;;;13.50;7.25;;;;;;;;;;6141519;23;20025;-61
2023/11/06 10:15:12;;;;;;;11.10;8.05;;;;;;;;;;6141017;23;20032;-61
2023/11/06 10:18:15;;;;;;;15.07;7.00;;;;;;;;;;6139246;23;20029;-51
2023/11/06 10:21:34;;;;;;;12.88;7.03;;;;;;;;;;6139220;23;20055;-60
2023/11/06 10:24:20;;;;;;;12.90;6.88;;;;;;;;;;6140340;23;20025;-59
2023/11/06 10:27:29;;;;;;;15.55;7.25;;;;;;;;;;6140936;23;20025;-59
2023/11/06 10:30:15;;;;;;;9.23;5.93;;;;;;;;;;6138652;23;20096;-60
2023/11/06 10:33:14;;;;;;;12.25;6.00;;;;;;;;;;6141500;23;20021;-60
2023/11/06 10:36:15;;;;;;;15.27;6.20;;;;;;;;;;6140000;23;20037;-60
2023/11/06 10:39:12;;;;;;;10.45;6.03;;;;;;;;;;6142006;23;20104;-61
2023/11/06 10:42:05;;;;;;;13.23;6.20;;;;;;;;;;6142711;23;20463;-62
2023/11/06 10:45:01;;;;;;;8.60;5.30;;;;;;;;;;6143580;23;20032;-62
2023/11/06 10:47:58;;;;;;;12.18;6.05;;;;;;;;;;6143304;23;20029;-62
2023/11/06 10:50:45;;;;;;;8.10;5.75;;;;;;;;;;6141132;23;20475;-62
2023/11/06 10:53:39;;;;;;;10.68;5.80;;;;;;;;;;6143041;23;20029;-61
2023/11/06 10:56:26;;;;;;;13.88;6.20;;;;;;;;;;6142286;23;20660;-61
2023/11/06 10:59:22;;;;;;;9.82;5.93;;;;;;;;;;6143391;23;20352;-62
2023/11/06 11:02:09;;;;;;;8.85;5.55;;;;;;;;;;6142791;23;20025;-62
2023/11/06 11:05:04;;;;;;;9.07;5.05;;;;;;;;;;6143309;23;20021;-62
2023/11/06 11:07:53;;;;;;;9.95;5.55;;;;;;;;;;6140969;23;20017;-62
2023/11/06 11:10:46;;;;;;;9.82;5.20;;;;;;;;;;6144201;23;20041;-63
2023/11/06 11:13:43;;;;;;;8.30;4.85;;;;;;;;;;6142561;23;20025;-61
2023/11/06 11:16:40;;;;;;;9.13;5.18;;;;;;;;;;6142606;23;20022;-60
2023/11/06 11:19:47;;;;;;;9.13;5.32;;;;;;;;;;6142072;23;20025;-59
2023/11/06 11:23:00;;;;;;;8.38;4.63;;;;;;;;;;6142244;23;20022;-58
2023/11/06 11:25:54;;;;;;;9.65;4.65;;;;;;;;;;6143008;23;20065;-59
2023/11/06 11:28:58;;;;;;;12.75;5.35;;;;;;;;;;6141055;23;20231;-58
2023/11/06 11:32:08;;;;;;;7.60;4.80;;;;;;;;;;6142649;23;20021;-60
2023/11/06 11:34:57;;;;;;;8.38;4.50;;;;;;;;;;6143510;23;20033;-59
2023/11/06 11:37:52;;;;;;;8.60;4.55;;;;;;;;;;6141295;23;20456;-59
2023/11/06 11:40:42;;;;;;;5.35;4.30;;;;;;;;;;6143441;23;20026;-59
2023/11/06 11:43:36;;;;;;;8.15;4.50;;;;;;;;;;6142597;23;20056;-59
2023/11/06 11:46:39;;;;;;;8.02;4.82;;;;;;;;;;6142197;23;20022;-59
2023/11/06 11:49:36;;;;;;;6.47;4.25;;;;;;;;;;6141932;23;20025;-59
2023/11/06 11:52:30;;;;;;;6.63;4.20;;;;;;;;;;6142049;23;20025;-60
2023/11/06 11:55:40;;;;;;;6.97;4.30;;;;;;;;;;6142559;23;20029;-61
2023/11/06 11:58:43;;;;;;;6.70;4.82;;;;;;;;;;6140070;23;20744;-61
2023/11/06 12:01:29;;;;;;;7.32;4.60;;;;;;;;;;6141061;23;20034;-61
2023/11/06 12:04:24;;;;;;;7.57;4.80;;;;;;;;;;6141863;23;20471;-61
2023/11/06 12:07:11;;;;;;;6.78;4.60;;;;;;;;;;6141758;23;20025;-62
2023/11/06 12:10:07;;;;;;;11.52;4.85;;;;;;;;;;6143572;23;20025;-62
2023/11/06 12:12:54;;;;;;;7.65;4.35;;;;;;;;;;6141199;23;20325;-51
2023/11/06 12:15:47;;;;;;;7.03;4.03;;;;;;;;;;6142640;23;20076;-54
2023/11/06 12:18:35;;;;;;;7.65;4.78;;;;;;;;;;6140364;23;20387;-49
2023/11/06 12:21:34;;;;;;;8.65;4.70;;;;;;;;;;6139335;23;20082;-53
2023/11/06 12:24:21;;;;;;;12.05;4.68;;;;;;;;;;6142026;23;20021;-51
2023/11/06 12:27:15;;;;;;;6.15;4.00;;;;;;;;;;6139702;23;20419;-61
2023/11/06 12:30:11;;;;;;;9.82;4.45;;;;;;;;;;6142433;23;20029;-65
2023/11/06 12:32:47;;;;;;;8.65;4.07;;;;;;;;;;6141451;23;20092;-65
2023/11/06 12:35:37;;;;;;;6.28;3.70;;;;;;;;;;6142722;23;20497;-64
2023/11/06 12:38:36;;;;;;;7.97;4.45;;;;;;;;;;6142490;23;20029;-64
2023/11/06 12:41:30;;;;;;;10.48;3.92;;;;;;;;;;6142070;23;20033;-65
2023/11/06 12:44:38;;;;;;;9.77;4.32;;;;;;;;;;6142656;23;20515;-65
2023/11/06 12:47:34;;;;;;;14.15;4.22;;;;;;;;;;6141418;23;20025;-62
2023/11/06 12:50:21;;;;;;;6.45;4.30;;;;;;;;;;6142619;23;20050;-51
2023/11/06 12:53:14;;;;;;;9.05;4.72;;;;;;;;;;6142184;23;20395;-54
2023/11/06 12:56:10;;;;;;;8.48;4.47;;;;;;;;;;6139755;23;20025;-53
2023/11/06 12:58:56;;;;;;;7.82;4.57;;;;;;;;;;6142589;23;20060;-49
2023/11/06 13:01:51;;;;;;;13.48;4.75;;;;;;;;;;6140300;23;20021;-50
2023/11/06 13:04:42;;;;;;;11.52;4.78;;;;;;;;;;6141974;23;20125;-51
2023/11/06 13:07:38;;;;;;;10.50;5.13;;;;;;;;;;6141178;23;20817;-48
2023/11/06 13:10:22;;;;;;;8.45;4.28;;;;;;;;;;6142131;23;20073;-53
2023/11/06 13:13:16;;;;;;;6.45;4.35;;;;;;;;;;6141826;23;20088;-52
2023/11/06 13:16:04;;;;;;;7.15;4.47;;;;;;;;;;6141731;23;20359;-49
2023/11/06 13:18:57;;;;;;;9.20;5.22;;;;;;;;;;6141586;23;20559;-54
2023/11/06 13:21:52;;;;;;;12.38;5.00;;;;;;;;;;6140628;23;20084;-60
2023/11/06 13:24:47;;;;;;;8.93;5.13;;;;;;;;;;6142566;23;20025;-61
2023/11/06 13:27:32;;;;;;;8.57;4.38;;;;;;;;;;6139198;23;20534;-61
2023/11/06 13:30:28;;;;;;;6.20;4.13;;;;;;;;;;6143226;23;20029;-61
2023/11/06 13:33:14;;;;;;;8.93;4.50;;;;;;;;;;6139450;23;20084;-61
2023/11/06 13:36:11;;;;;;;8.23;4.28;;;;;;;;;;6140063;23;20419;-62
2023/11/06 13:38:58;;;;;;;10.40;4.65;;;;;;;;;;6141996;23;20092;-61
2023/11/06 13:41:58;;;;;;;6.85;4.10;;;;;;;;;;6141684;23;20112;-65
2023/11/06 13:44:45;;;;;;;10.65;4.60;;;;;;;;;;6141820;23;20026;-51
2023/11/06 13:47:39;;;;;;;8.63;3.70;;;;;;;;;;6139080;23;20029;-54
2023/11/06 13:50:21;;;;;;;5.85;4.22;;;;;;;;;;6142582;23;20049;-51
2023/11/06 13:53:08;;;;;;;5.55;4.38;;;;;;;;;;6141034;23;20029;-51
2023/11/06 13:55:41;;;;;;;8.50;4.05;;;;;;;;;;6139390;23;20021;-50
2023/11/06 13:58:38;;;;;;;8.27;3.67;;;;;;;;;;6141136;23;20021;-49
2023/11/06 14:01:38;;;;;;;9.40;4.82;;;;;;;;;;6142783;23;20530;-61
2023/11/06 14:04:19;;;;;;;8.00;3.63;;;;;;;;;;6141008;23;20029;-61
2023/11/06 14:07:12;;;;;;;16.60;7.07;;;;;;;;;;6140568;23;20026;-60
2023/11/06 14:10:02;;;;;;;11.63;4.80;;;;;;;;;;6140075;23;20033;-60
2023/11/06 14:12:48;;;;;;;7.82;3.88;;;;;;;;;;6140830;23;20085;-60
2023/11/06 14:15:42;;;;;;;11.50;4.20;;;;;;;;;;6141512;23;20049;-60
2023/11/06 14:18:36;;;;;;;7.28;4.35;;;;;;;;;;6140153;23;20411;-53
2023/11/06 14:21:30;;;;;;;7.22;4.07;;;;;;;;;;6136888;23;20780;-60
2023/11/06 14:24:23;;;;;;;;;;;;;;;;;;6141532;23;20026;-60
2023/11/06 14:27:10;;;;;;;10.70;4.25;;;;;;;;;;6140025;23;19920;-60
2023/11/06 14:30:05;;;;;;;8.00;4.40;;;;;;;;;;6142216;23;20072;-60
2023/11/06 14:32:52;;;;;;;7.47;4.45;;;;;;;;;;6141039;23;20029;-60
2023/11/06 14:35:45;;;;;;;5.70;3.80;;;;;;;;;;6141241;23;20066;-51
2023/11/06 14:38:39;;;;;;;9.07;4.10;;;;;;;;;;6141989;23;20025;-62
2023/11/06 14:41:27;;;;;;;6.15;3.88;;;;;;;;;;6141732;23;20022;-63
2023/11/06 14:44:21;;;;;;;5.82;3.90;;;;;;;;;;6142094;23;20026;-62
2023/11/06 14:47:07;;;;;;;10.18;3.88;;;;;;;;;;6139161;23;20025;-62
2023/11/06 14:50:04;;;;;;;9.82;4.22;;;;;;;;;;6141550;23;20021;-62
2023/11/06 14:52:51;;;;;;;10.27;4.38;;;;;;;;;;6139059;23;20029;-61
2023/11/06 14:56:00;;;;;;;11.70;4.07;;;;;;;;;;6140621;23;20021;-62
2023/11/06 14:58:54;;;;;;;8.48;4.07;;;;;;;;;;6140191;23;20024;-62
2023/11/06 15:01:48;;;;;;;7.00;4.00;;;;;;;;;;6138437;23;20025;-63
2023/11/06 15:04:44;;;;;;;4.38;3.53;;;;;;;;;;6141002;23;20021;-62
2023/11/06 15:07:31;;;;;;;6.32;4.07;;;;;;;;;;6138608;23;20032;-62
2023/11/06 15:10:27;;;;;;;6.95;4.30;;;;;;;;;;6141203;23;20191;-62
2023/11/06 15:13:18;;;;;;;5.85;4.00;;;;;;;;;;6141197;23;20032;-63
2023/11/06 15:16:06;;;;;;;8.65;4.78;;;;;;;;;;6142418;23;20076;-60
2023/11/06 15:18:42;;;;;;;8.93;4.70;;;;;;;;;;6141459;23;20030;-60
2023/11/06 15:21:17;;;;;;;5.55;4.35;;;;;;;;;;6140872;23;20032;-60
2023/11/06 15:24:12;;;;;;;6.28;3.92;;;;;;;;;;6142907;23;20081;-60
2023/11/06 15:26:58;;;;;;;7.78;3.97;;;;;;;;;;6144828;23;20411;-61
2023/11/06 15:29:52;;;;;;;7.00;4.10;;;;;;;;;;6144593;23;20113;-60
2023/11/06 15:32:44;;;;;;;7.90;4.20;;;;;;;;;;6142362;23;20376;-63
2023/11/06 15:35:17;;;;;;;8.30;4.25;;;;;;;;;;6145139;23;20076;-60
2023/11/06 15:37:46;;;;;;;11.20;4.35;;;;;;;;;;6144291;23;20712;-59
2023/11/06 15:40:40;;;;;;;7.72;4.28;;;;;;;;;;6144832;23;20029;-59
2023/11/06 15:43:27;;;;;;;8.60;4.40;;;;;;;;;;6140957;23;20025;-60
2023/11/06 15:46:20;;;;;;;7.30;4.43;;;;;;;;;;6140500;23;20029;-59
2023/11/06 15:48:58;;;;;;;11.00;4.35;;;;;;;;;;6140582;23;20080;-61
2023/11/06 15:51:32;;;;;;;14.05;4.93;;;;;;;;;;6136611;23;20507;-61
2023/11/06 15:54:20;;;;;;;8.48;3.95;;;;;;;;;;6139739;23;20026;-65
2023/11/06 15:57:14;;;;;;;12.93;4.47;;;;;;;;;;6139850;23;20040;-65
2023/11/06 16:00:01;;;;;;;16.55;4.80;;;;;;;;;;6139079;23;20030;-64
2023/11/06 16:02:54;;;;;;;13.60;3.97;;;;;;;;;;6138486;23;20040;-64
2023/11/06 16:05:21;;;;;;;;;;;;;;;;;;6142927;23;20053;-64
2023/11/06 16:07:55;;;;;;;10.45;3.45;;;;;;;;;;6142297;23;19920;-61
2023/11/06 16:10:23;;;;;;;9.95;3.70;;;;;;;;;;6143604;23;20033;-61
2023/11/06 16:12:54;;;;;;;15.43;3.80;;;;;;;;;;6142245;23;20025;-61
2023/11/06 16:15:29;;;;;;;11.50;3.50;;;;;;;;;;6142121;23;20036;-61
2023/11/06 16:17:56;;;;;;;;;;;;;;;;;;6143862;23;20100;-61
2023/11/06 16:20:24;;;;;;;14.55;3.88;;;;;;;;;;6143429;23;20342;-61
2023/11/06 16:23:04;;;;;;;12.57;3.28;;;;;;;;;;6141822;23;20029;-61
2023/11/06 16:25:32;;;;;;;29.63;3.70;;;;;;;;;;6142874;23;20025;-64
2023/11/06 16:28:26;;;;;;;18.75;3.35;;;;;;;;;;6141288;23;20375;-61
2023/11/06 16:31:13;;;;;;;10.82;3.22;;;;;;;;;;6141637;23;20076;-61
2023/11/06 16:34:08;;;;;;;17.83;3.58;;;;;;;;;;6140429;23;20029;-61
2023/11/06 16:37:08;;;;;;;14.10;3.10;;;;;;;;;;6138620;23;20025;-61
2023/11/06 16:39:46;;;;;;;10.48;2.75;;;;;;;;;;6138897;23;20029;-63
2023/11/06 16:42:35;;;;;;;16.88;3.05;;;;;;;;;;6141409;23;20092;-62